METAR Data
IDs: Format: Raw Decoded Include TAF

Data at: 2130 UTC 02 Aug 2021

TBPB 022100Z 10008KT 9999 FEW020 29/24 Q1015 NOSIG